Time;durP1;ratioP1;P1;durP2;ratioP2;P2;SDS_P1;SDS_P2;PMS_P1;PMS_P2;Temp;Humidity;BMP_temperature;BMP_pressure;BME280_temperature;BME280_humidity;BME280_pressure;Samples;Min_cycle;Max_cycle;Signal;HPM_P1;HPM_P2
2021/12/18 00:01:32;;;;;;;32.35;17.95;;;9.80;81.80;;;;;;5038671;28;20178;-84
2021/12/18 00:03:58;;;;;;;38.50;18.45;;;9.60;81.50;;;;;;5024340;28;20244;-84
2021/12/18 00:06:27;;;;;;;42.77;21.00;;;9.60;82.60;;;;;;5008421;28;20178;-84
2021/12/18 00:08:54;;;;;;;34.95;17.15;;;9.50;82.20;;;;;;5023129;28;20178;-84
2021/12/18 00:11:20;;;;;;;42.63;19.58;;;9.50;82.60;;;;;;5022405;28;20635;-83
2021/12/18 00:13:48;;;;;;;38.60;20.27;;;9.40;82.50;;;;;;5022804;28;20285;-84
2021/12/18 00:16:14;;;;;;;42.03;19.13;;;9.40;82.80;;;;;;5023247;28;20444;-83
2021/12/18 00:18:40;;;;;;;36.57;20.50;;;9.40;83.10;;;;;;5022248;28;20179;-83
2021/12/18 00:21:07;;;;;;;34.97;19.40;;;9.50;83.10;;;;;;5023274;28;20445;-83
2021/12/18 00:23:33;;;;;;;40.22;19.75;;;9.50;83.00;;;;;;5024165;28;20182;-84
2021/12/18 00:25:59;;;;;;;37.45;18.55;;;9.50;83.00;;;;;;5024045;28;20205;-84
2021/12/18 00:28:25;;;;;;;36.70;18.67;;;9.60;82.80;;;;;;5025767;28;20725;-85
2021/12/18 00:30:51;;;;;;;36.27;19.53;;;9.70;82.70;;;;;;5025232;28;20492;-85
2021/12/18 00:33:16;;;;;;;41.07;20.70;;;9.80;82.40;;;;;;5024135;28;20218;-85
2021/12/18 00:35:42;;;;;;;33.20;19.80;;;9.70;82.50;;;;;;5019126;28;20441;-85
2021/12/18 00:38:09;;;;;;;35.97;18.03;;;9.60;82.50;;;;;;5018823;28;20190;-85
2021/12/18 00:40:46;;;;;;;37.75;19.40;;;9.60;82.50;;;;;;5018277;28;20544;-85
2021/12/18 00:43:24;;;;;;;35.55;19.38;;;9.50;82.70;;;;;;5018808;28;20182;-84
2021/12/18 00:45:51;;;;;;;43.53;20.77;;;9.60;82.90;;;;;;5024327;28;20240;-84
2021/12/18 00:48:17;;;;;;;40.28;18.77;;;9.50;83.00;;;;;;5037135;28;20186;-84
2021/12/18 00:50:43;;;;;;;40.92;20.80;;;9.70;83.00;;;;;;5039313;28;20185;-85
2021/12/18 00:53:08;;;;;;;41.22;21.67;;;9.70;82.80;;;;;;5037657;28;20178;-84
2021/12/18 00:55:36;;;;;;;46.03;19.33;;;9.70;82.60;;;;;;5041137;28;20606;-85
2021/12/18 00:58:03;;;;;;;39.45;21.85;;;9.60;82.80;;;;;;5039619;28;20764;-85
2021/12/18 01:00:29;;;;;;;41.20;21.48;;;9.70;83.00;;;;;;5023993;28;20205;-84
2021/12/18 01:02:59;;;;;;;51.30;23.77;;;9.60;83.60;;;;;;5019261;28;20548;-84
2021/12/18 01:05:26;;;;;;;44.45;23.85;;;9.50;83.30;;;;;;5019206;28;20492;-85
2021/12/18 01:07:55;;;;;;;41.03;19.73;;;9.40;83.20;;;;;;5001460;28;20274;-84
2021/12/18 01:12:52;;;;;;;41.53;21.83;;;9.60;83.50;;;;;;5021196;28;20179;-84
2021/12/18 01:23:14;;;;;;;38.75;20.85;;;9.60;83.10;;;;;;5039900;28;20195;-84
2021/12/18 01:25:40;;;;;;;38.47;18.80;;;9.70;83.30;;;;;;5039036;28;20633;-85
2021/12/18 01:28:06;;;;;;;39.03;20.13;;;9.60;83.30;;;;;;5040062;28;20212;-85
2021/12/18 01:30:33;;;;;;;39.97;19.60;;;9.50;83.50;;;;;;5039693;28;20181;-84
2021/12/18 01:32:59;;;;;;;42.90;20.63;;;9.60;83.50;;;;;;5039895;28;20232;-83
2021/12/18 01:35:24;;;;;;;45.10;20.27;;;9.70;83.70;;;;;;5022547;28;20191;-86
2021/12/18 01:37:51;;;;;;;36.47;18.70;;;9.60;83.50;;;;;;5018688;28;20477;-85
2021/12/18 01:40:21;;;;;;;41.95;21.60;;;9.40;83.80;;;;;;5018844;28;20171;-85
2021/12/18 01:53:56;;;;;;;49.45;21.02;;;9.70;84.20;;;;;;5037383;28;20210;-84
2021/12/18 01:56:24;;;;;;;36.70;18.07;;;9.70;83.90;;;;;;5020507;28;20189;-84
2021/12/18 01:58:50;;;;;;;38.85;19.60;;;9.50;83.70;;;;;;5027661;28;21126;-84
2021/12/18 02:01:17;;;;;;;37.90;18.83;;;9.50;84.10;;;;;;5038768;28;20174;-84
2021/12/18 02:03:44;;;;;;;48.08;20.05;;;9.60;84.20;;;;;;5038507;28;20182;-84
2021/12/18 02:06:10;;;;;;;40.47;18.60;;;9.70;84.10;;;;;;5039407;28;20629;-84
2021/12/18 02:08:38;;;;;;;37.93;17.37;;;9.70;83.80;;;;;;5039721;28;20182;-85
2021/12/18 02:11:16;;;;;;;35.28;16.70;;;9.50;83.60;;;;;;5036288;28;20428;-84
2021/12/18 02:21:56;;;;;;;40.22;17.08;;;9.40;84.20;;;;;;5024336;28;20187;-84
2021/12/18 02:24:25;;;;;;;33.40;17.38;;;9.40;84.10;;;;;;5017591;28;20293;-84
2021/12/18 02:26:50;;;;;;;40.70;18.17;;;9.40;84.40;;;;;;5019203;28;20189;-84
2021/12/18 02:29:17;;;;;;;48.47;19.77;;;9.30;84.60;;;;;;5018298;28;20178;-84
2021/12/18 02:31:44;;;;;;;39.63;17.27;;;9.30;84.70;;;;;;5019855;28;20425;-84
2021/12/18 02:34:16;;;;;;;36.38;16.02;;;9.30;84.90;;;;;;5018318;28;20218;-83
2021/12/18 02:36:47;;;;;;;33.58;14.68;;;9.30;84.80;;;;;;5018318;28;20175;-84
2021/12/18 02:39:25;;;;;;;30.33;15.30;;;9.40;84.70;;;;;;5017939;28;20210;-84
2021/12/18 02:42:24;;;;;;;31.17;14.75;;;9.50;84.70;;;;;;5018532;28;20185;-84
2021/12/18 02:44:43;;;;;;;35.25;15.98;;;9.40;84.70;;;;;;5020291;28;20207;-83
2021/12/18 02:47:10;;;;;;;33.83;15.68;;;9.40;84.60;;;;;;5036234;28;20272;-84
2021/12/18 02:49:45;;;;;;;31.45;15.55;;;9.50;84.60;;;;;;5038444;28;20192;-84
2021/12/18 02:52:12;;;;;;;37.03;16.77;;;9.60;84.50;;;;;;5039139;28;20176;-84
2021/12/18 02:54:42;;;;;;;32.40;15.75;;;9.50;84.30;;;;;;5038183;28;20711;-84
2021/12/18 02:57:09;;;;;;;35.20;14.65;;;9.60;84.30;;;;;;5039048;28;20181;-84
2021/12/18 02:59:49;;;;;;;34.75;15.75;;;9.60;84.10;;;;;;5021557;28;20217;-84
2021/12/18 03:02:18;;;;;;;36.33;16.25;;;9.70;84.20;;;;;;5037701;28;20177;-84
2021/12/18 03:04:48;;;;;;;36.22;16.13;;;9.80;84.00;;;;;;5038698;28;20202;-85
2021/12/18 03:07:16;;;;;;;37.67;16.73;;;9.90;83.80;;;;;;5037444;28;20174;-84
2021/12/18 03:25:44;;;;;;;28.83;13.63;;;9.70;84.50;;;;;;5043900;28;20220;-84
2021/12/18 03:28:10;;;;;;;31.10;14.23;;;9.60;84.20;;;;;;5041951;28;20661;-84
2021/12/18 03:30:37;;;;;;;32.88;14.95;;;9.50;84.40;;;;;;5042847;28;20653;-84
2021/12/18 03:33:04;;;;;;;30.13;14.05;;;9.40;84.70;;;;;;5023540;28;20214;-83
2021/12/18 03:35:30;;;;;;;33.25;15.82;;;9.40;85.10;;;;;;5023011;28;20602;-84
2021/12/18 03:37:56;;;;;;;31.67;17.40;;;9.40;85.20;;;;;;5023065;28;20175;-83
2021/12/18 03:40:24;;;;;;;30.85;14.07;;;9.50;85.40;;;;;;5023539;28;20906;-84
2021/12/18 03:42:50;;;;;;;34.15;16.13;;;9.50;85.20;;;;;;5023929;28;20705;-84
2021/12/18 03:45:19;;;;;;;34.45;15.10;;;9.50;85.10;;;;;;5027862;28;20202;-83
2021/12/18 03:47:46;;;;;;;31.50;15.73;;;9.30;85.20;;;;;;5048949;28;20186;-83
2021/12/18 03:50:12;;;;;;;33.40;15.88;;;9.40;85.40;;;;;;5050509;28;20178;-84
2021/12/18 03:52:38;;;;;;;38.25;15.38;;;9.40;85.50;;;;;;5045346;28;20208;-84
2021/12/18 03:55:05;;;;;;;28.50;14.02;;;9.60;85.50;;;;;;5045878;28;20210;-84
2021/12/18 03:57:31;;;;;;;31.75;13.43;;;9.60;85.30;;;;;;5052946;28;20186;-84
2021/12/18 03:59:56;;;;;;;34.10;14.70;;;9.60;85.00;;;;;;5046826;28;20626;-85
2021/12/18 04:02:22;;;;;;;27.87;14.17;;;9.70;85.00;;;;;;5043548;28;20705;-85
2021/12/18 04:04:48;;;;;;;33.70;13.50;;;9.60;84.70;;;;;;5036886;28;20452;-84
2021/12/18 04:07:15;;;;;;;28.48;13.70;;;9.70;84.70;;;;;;5040145;28;20810;-84
2021/12/18 04:09:40;;;;;;;34.67;14.68;;;9.70;84.60;;;;;;5040012;28;20250;-84
2021/12/18 04:12:07;;;;;;;33.13;15.00;;;9.60;84.60;;;;;;5037988;28;20228;-84
2021/12/18 04:14:33;;;;;;;31.60;14.60;;;9.70;84.80;;;;;;5037924;28;20490;-84
2021/12/18 04:16:59;;;;;;;34.43;16.00;;;9.80;84.70;;;;;;5039122;28;20645;-84
2021/12/18 04:19:25;;;;;;;37.03;15.23;;;9.80;84.50;;;;;;5042940;28;20182;-84
2021/12/18 04:21:51;;;;;;;29.67;13.67;;;9.80;84.20;;;;;;5045917;28;20709;-83
2021/12/18 04:24:17;;;;;;;36.20;15.02;;;9.70;84.30;;;;;;5030286;28;20207;-84
2021/12/18 04:26:43;;;;;;;34.25;14.73;;;9.80;84.50;;;;;;5024075;28;20621;-83
2021/12/18 04:29:09;;;;;;;29.23;13.13;;;9.60;84.50;;;;;;5024046;28;20554;-84
2021/12/18 04:31:36;;;;;;;28.40;11.97;;;9.60;84.60;;;;;;5008523;28;20183;-84
2021/12/18 04:34:02;;;;;;;31.42;13.63;;;9.50;84.70;;;;;;5019437;28;20538;-83
2021/12/18 04:36:28;;;;;;;33.97;14.02;;;9.30;85.20;;;;;;5037169;28;20175;-84
2021/12/18 04:38:54;;;;;;;33.17;13.20;;;9.10;85.60;;;;;;5035853;28;20178;-83
2021/12/18 04:41:23;;;;;;;32.00;12.83;;;9.10;86.20;;;;;;5028190;28;20916;-84
2021/12/18 04:43:50;;;;;;;26.10;11.88;;;9.20;86.30;;;;;;5022490;28;20186;-84
2021/12/18 04:46:16;;;;;;;29.85;13.73;;;9.20;86.40;;;;;;5020428;28;20250;-84
2021/12/18 04:48:42;;;;;;;37.58;16.27;;;9.40;86.50;;;;;;5019935;28;20673;-84
2021/12/18 04:51:08;;;;;;;29.80;13.57;;;9.40;86.20;;;;;;5019903;28;20217;-84
2021/12/18 04:53:34;;;;;;;34.08;14.75;;;9.30;86.00;;;;;;5017729;28;20461;-84
2021/12/18 04:55:59;;;;;;;32.00;13.10;;;9.40;86.90;;;;;;5019560;28;20190;-84
2021/12/18 04:58:25;;;;;;;27.87;13.50;;;9.50;86.00;;;;;;5020604;28;20170;-83
2021/12/18 05:00:53;;;;;;;33.77;14.97;;;9.30;85.90;;;;;;5018565;28;20179;-83
2021/12/18 05:03:19;;;;;;;31.20;13.52;;;9.30;86.10;;;;;;5022615;28;20175;-83
2021/12/18 05:05:46;;;;;;;26.17;12.83;;;9.30;86.10;;;;;;5039415;28;20284;-83
2021/12/18 05:08:12;;;;;;;28.80;13.90;;;9.40;86.20;;;;;;5041239;28;20412;-83
2021/12/18 05:10:38;;;;;;;28.53;12.83;;;9.30;86.30;;;;;;5040029;28;20616;-83
2021/12/18 05:13:04;;;;;;;26.07;11.53;;;9.50;86.30;;;;;;5039719;28;20417;-83
2021/12/18 05:15:30;;;;;;;29.85;14.60;;;9.60;86.00;;;;;;5041105;28;20205;-83
2021/12/18 05:17:55;;;;;;;29.77;15.50;;;9.60;85.70;;;;;;5039057;28;20185;-83
2021/12/18 05:20:21;;;;;;;34.77;13.53;;;9.50;85.50;;;;;;5039274;28;20440;-83
2021/12/18 05:22:47;;;;;;;33.03;14.17;;;9.50;85.50;;;;;;5040663;28;20190;-84
2021/12/18 05:25:13;;;;;;;27.10;12.90;;;9.40;85.70;;;;;;5027196;28;21094;-83
2021/12/18 05:27:39;;;;;;;29.63;12.63;;;9.50;86.00;;;;;;5019860;28;20936;-83
2021/12/18 05:30:07;;;;;;;37.65;13.65;;;9.50;85.90;;;;;;5019533;28;20433;-84
2021/12/18 05:32:33;;;;;;;35.63;13.88;;;9.40;85.90;;;;;;5019897;28;20183;-84
2021/12/18 05:34:58;;;;;;;36.23;14.30;;;9.30;86.20;;;;;;5018087;28;20222;-84
2021/12/18 05:39:50;;;;;;;32.20;12.23;;;9.20;86.40;;;;;;5031103;28;20209;-83
2021/12/18 05:42:17;;;;;;;34.92;13.35;;;9.20;86.60;;;;;;5041023;28;20932;-83
2021/12/18 05:44:44;;;;;;;37.42;16.13;;;9.10;86.80;;;;;;5040919;28;20209;-83
2021/12/18 05:47:10;;;;;;;34.78;12.90;;;9.10;87.20;;;;;;5041013;28;20178;-84
2021/12/18 05:49:36;;;;;;;34.70;14.18;;;9.00;87.60;;;;;;5040613;28;20216;-84
2021/12/18 05:52:02;;;;;;;34.07;14.73;;;9.20;87.90;;;;;;5040508;28;20181;-83
2021/12/18 05:54:28;;;;;;;31.92;13.18;;;9.10;87.80;;;;;;5039316;28;20460;-83
2021/12/18 05:56:53;;;;;;;37.60;17.17;;;9.00;87.70;;;;;;5041308;28;20189;-83
2021/12/18 05:59:19;;;;;;;30.50;15.57;;;8.80;88.20;;;;;;5039246;28;20503;-83
2021/12/18 06:01:45;;;;;;;30.07;12.87;;;9.00;88.50;;;;;;5038031;28;20178;-83
2021/12/18 06:04:10;;;;;;;33.90;15.63;;;9.00;88.40;;;;;;5022486;28;20195;-83
2021/12/18 06:06:36;;;;;;;42.53;16.90;;;8.90;88.50;;;;;;5026407;28;20460;-84
2021/12/18 06:09:02;;;;;;;38.07;14.20;;;9.00;88.70;;;;;;5025629;28;20183;-83
2021/12/18 06:11:31;;;;;;;31.60;14.35;;;9.00;88.40;;;;;;5024703;28;20186;-83
2021/12/18 06:13:57;;;;;;;35.15;14.20;;;9.00;88.40;;;;;;5030833;28;20201;-83
2021/12/18 06:16:23;;;;;;;33.60;15.17;;;8.90;88.60;;;;;;5039934;28;20178;-84
2021/12/18 06:18:50;;;;;;;38.70;14.98;;;9.10;89.00;;;;;;5041646;28;20427;-84
2021/12/18 06:21:18;;;;;;;33.67;13.55;;;9.30;89.00;;;;;;5025333;28;20301;-84
2021/12/18 06:23:49;;;;;;;37.08;15.93;;;9.40;88.50;;;;;;5022741;28;20528;-83
2021/12/18 06:26:16;;;;;;;41.17;16.30;;;9.20;87.90;;;;;;5039472;28;20181;-83
2021/12/18 06:28:42;;;;;;;37.25;14.93;;;9.20;87.90;;;;;;5040523;28;20633;-84
2021/12/18 06:31:08;;;;;;;42.63;17.38;;;9.20;87.90;;;;;;5042568;28;20217;-84
2021/12/18 06:33:34;;;;;;;38.97;13.43;;;9.20;88.00;;;;;;5040695;28;20209;-84
2021/12/18 06:36:00;;;;;;;38.13;15.30;;;9.10;88.00;;;;;;5041041;28;20216;-84
2021/12/18 06:38:26;;;;;;;38.33;14.82;;;9.20;88.10;;;;;;5040761;28;20413;-84
2021/12/18 06:40:52;;;;;;;38.53;15.95;;;9.20;88.10;;;;;;5041935;28;20178;-84
2021/12/18 06:43:18;;;;;;;33.33;15.63;;;9.10;88.20;;;;;;5046435;28;20267;-84
2021/12/18 06:45:43;;;;;;;41.30;18.63;;;9.20;88.40;;;;;;5044400;28;20190;-84
2021/12/18 06:48:09;;;;;;;38.50;15.97;;;9.40;88.30;;;;;;5043166;28;20409;-83
2021/12/18 06:50:36;;;;;;;32.70;14.07;;;9.40;88.10;;;;;;5046032;28;20174;-82
2021/12/18 06:53:03;;;;;;;47.55;16.60;;;9.60;87.90;;;;;;5045109;28;20409;-83
2021/12/18 06:55:30;;;;;;;41.33;16.02;;;9.50;87.50;;;;;;5045741;28;20201;-84
2021/12/18 06:57:56;;;;;;;41.33;15.02;;;9.40;87.30;;;;;;5045911;28;20178;-84
2021/12/18 07:00:23;;;;;;;37.25;15.07;;;9.50;87.50;;;;;;5036547;28;20184;-85
2021/12/18 07:02:49;;;;;;;42.45;15.23;;;9.50;87.30;;;;;;5021374;28;20179;-84
2021/12/18 07:05:15;;;;;;;54.92;20.60;;;9.60;87.30;;;;;;5017676;28;20533;-83
2021/12/18 07:07:41;;;;;;;43.63;16.30;;;9.40;87.30;;;;;;5021218;28;20178;-84
2021/12/18 07:10:10;;;;;;;38.97;16.60;;;9.60;87.60;;;;;;5025071;28;20178;-84
2021/12/18 07:12:36;;;;;;;48.78;17.35;;;9.60;87.60;;;;;;5026209;28;20170;-85
2021/12/18 07:15:03;;;;;;;49.33;16.67;;;9.60;87.60;;;;;;5029782;28;20268;-84
2021/12/18 07:17:29;;;;;;;48.70;16.23;;;9.70;87.70;;;;;;5029987;28;20182;-84
2021/12/18 07:19:55;;;;;;;51.13;17.90;;;9.80;87.50;;;;;;5029076;28;20179;-85
2021/12/18 07:22:20;;;;;;;44.80;16.97;;;9.70;87.40;;;;;;5036129;28;20181;-85
2021/12/18 07:24:46;;;;;;;48.90;20.13;;;9.80;87.30;;;;;;5049099;28;20225;-85
2021/12/18 07:27:12;;;;;;;44.13;18.60;;;9.70;87.20;;;;;;5047382;28;20282;-85
2021/12/18 07:29:38;;;;;;;58.43;19.37;;;9.70;87.30;;;;;;5035200;28;20225;-85
2021/12/18 07:32:04;;;;;;;43.60;17.83;;;9.50;87.30;;;;;;5048012;28;20447;-81
2021/12/18 07:34:29;;;;;;;56.63;17.73;;;9.50;87.60;;;;;;5049225;28;20472;-80
2021/12/18 07:36:55;;;;;;;61.57;18.13;;;9.50;87.90;;;;;;5041989;28;20178;-80
2021/12/18 07:39:21;;;;;;;59.63;18.70;;;9.50;88.20;;;;;;5040280;28;20193;-81
2021/12/18 07:41:46;;;;;;;49.13;17.60;;;9.60;88.30;;;;;;5039161;28;20170;-81
2021/12/18 07:44:12;;;;;;;51.03;18.90;;;9.60;88.30;;;;;;5038607;28;20197;-81
2021/12/18 07:46:38;;;;;;;44.30;17.70;;;9.70;88.40;;;;;;5033537;28;20197;-81
2021/12/18 07:49:06;;;;;;;57.08;21.42;;;9.70;88.40;;;;;;5020161;28;20225;-81
2021/12/18 07:51:32;;;;;;;51.92;18.88;;;9.70;88.30;;;;;;5020963;28;20249;-80
2021/12/18 07:53:58;;;;;;;58.67;19.08;;;9.50;88.20;;;;;;5019344;28;20693;-81
2021/12/18 07:56:24;;;;;;;55.47;20.23;;;9.50;88.40;;;;;;5038155;28;20191;-81
2021/12/18 07:58:51;;;;;;;58.72;21.70;;;9.60;88.50;;;;;;5038687;28;20178;-82
2021/12/18 08:01:16;;;;;;;51.88;18.65;;;9.50;88.50;;;;;;5037865;28;20539;-80
2021/12/18 08:03:42;;;;;;;44.70;17.60;;;9.50;88.70;;;;;;5025626;28;20179;-80
2021/12/18 08:06:08;;;;;;;45.60;16.50;;;9.60;88.80;;;;;;5019086;28;20642;-80
2021/12/18 08:08:34;;;;;;;51.33;17.60;;;9.60;88.80;;;;;;5017806;28;20500;-81
2021/12/18 08:11:00;;;;;;;56.17;19.50;;;9.60;88.70;;;;;;5020962;28;20413;-81
2021/12/18 08:13:25;;;;;;;52.00;18.27;;;9.60;88.70;;;;;;5027973;28;20431;-80
2021/12/18 08:15:51;;;;;;;52.37;18.00;;;9.60;88.80;;;;;;5039153;28;20225;-81
2021/12/18 08:18:17;;;;;;;45.63;18.20;;;9.60;88.80;;;;;;5039946;28;20185;-80
2021/12/18 08:20:43;;;;;;;45.43;16.00;;;9.70;88.90;;;;;;5039431;28;20216;-81
2021/12/18 08:23:08;;;;;;;51.47;17.83;;;9.70;88.80;;;;;;5039556;28;20431;-81
2021/12/18 08:25:35;;;;;;;51.17;17.50;;;9.70;88.80;;;;;;5041759;28;20432;-80
2021/12/18 08:28:02;;;;;;;47.85;17.80;;;9.70;88.80;;;;;;5035298;28;20217;-80
2021/12/18 08:30:31;;;;;;;50.33;18.15;;;9.70;88.80;;;;;;5025390;28;20635;-80
2021/12/18 08:32:58;;;;;;;44.42;18.73;;;9.60;88.80;;;;;;5021029;28;20182;-82
2021/12/18 08:35:25;;;;;;;65.18;21.27;;;9.70;89.00;;;;;;5021736;28;20277;-80
2021/12/18 08:37:52;;;;;;;55.97;21.88;;;9.60;88.90;;;;;;5025191;28;20174;-81
2021/12/18 08:40:18;;;;;;;56.90;18.92;;;9.70;89.10;;;;;;5022975;28;20183;-82
2021/12/18 08:42:44;;;;;;;60.42;20.17;;;9.50;89.10;;;;;;5022134;28;20201;-81
2021/12/18 08:45:11;;;;;;;48.25;17.98;;;9.60;89.30;;;;;;5021910;28;20209;-81
2021/12/18 08:47:37;;;;;;;45.42;17.40;;;9.30;89.20;;;;;;5032005;28;20185;-81
2021/12/18 08:50:04;;;;;;;52.60;18.00;;;9.40;89.60;;;;;;5040508;28;20253;-81
2021/12/18 08:52:30;;;;;;;53.97;16.00;;;9.50;89.90;;;;;;5040495;28;20429;-81
2021/12/18 08:54:56;;;;;;;44.67;17.50;;;9.60;90.00;;;;;;5041474;28;20219;-82
2021/12/18 08:57:22;;;;;;;50.33;17.50;;;9.50;89.80;;;;;;5040398;28;20248;-80
2021/12/18 08:59:48;;;;;;;40.73;15.37;;;9.20;89.70;;;;;;5040847;28;20254;-82
2021/12/18 09:02:14;;;;;;;45.70;14.83;;;9.20;90.10;;;;;;5021234;28;20418;-81
2021/12/18 09:04:40;;;;;;;40.97;14.90;;;9.30;90.40;;;;;;5018399;28;20278;-81
2021/12/18 09:07:07;;;;;;;44.57;13.80;;;9.20;90.40;;;;;;5019321;28;20190;-81
2021/12/18 09:09:33;;;;;;;32.95;13.80;;;9.10;90.40;;;;;;5019939;28;20181;-81
2021/12/18 09:11:58;;;;;;;40.27;13.10;;;8.90;90.60;;;;;;5018671;28;20236;-80
2021/12/18 09:14:24;;;;;;;34.50;13.20;;;9.00;90.80;;;;;;5032555;28;20518;-81
2021/12/18 09:16:52;;;;;;;37.90;14.63;;;9.20;91.00;;;;;;5039246;28;20616;-81
2021/12/18 09:19:18;;;;;;;30.92;12.40;;;9.00;90.50;;;;;;5038713;28;20174;-81
2021/12/18 09:21:43;;;;;;;32.63;12.30;;;9.00;90.70;;;;;;5039708;28;20201;-81
2021/12/18 09:24:09;;;;;;;30.47;10.87;;;9.00;90.70;;;;;;5037766;28;20448;-80
2021/12/18 09:26:35;;;;;;;30.58;12.73;;;9.20;90.70;;;;;;5042377;28;20176;-81
2021/12/18 09:29:01;;;;;;;34.10;11.07;;;9.10;90.50;;;;;;5044897;28;20261;-81
2021/12/18 09:31:27;;;;;;;33.00;12.03;;;8.90;90.30;;;;;;5047563;28;20415;-80
2021/12/18 09:33:53;;;;;;;26.80;9.90;;;8.80;90.50;;;;;;5045802;28;20471;-81
2021/12/18 09:36:18;;;;;;;31.50;11.50;;;8.70;90.90;;;;;;5046946;28;20427;-81
2021/12/18 09:38:44;;;;;;;29.93;11.57;;;8.80;91.10;;;;;;5049980;28;20196;-81
2021/12/18 09:41:10;;;;;;;29.27;12.80;;;8.90;91.30;;;;;;5047151;28;21011;-81
2021/12/18 09:43:37;;;;;;;35.83;14.80;;;8.90;91.20;;;;;;5052968;28;20441;-82
2021/12/18 09:46:11;;;;;;;38.10;14.05;;;8.90;91.20;;;;;;5054656;28;20425;-81
2021/12/18 09:48:38;;;;;;;31.00;13.55;;;9.10;91.30;;;;;;5052486;28;20201;-81
2021/12/18 09:51:08;;;;;;;32.53;12.65;;;9.00;91.10;;;;;;5041611;28;20232;-81
2021/12/18 09:53:35;;;;;;;29.38;12.48;;;9.10;91.20;;;;;;5038639;28;20217;-81
2021/12/18 09:56:05;;;;;;;29.20;11.93;;;9.30;91.10;;;;;;5032483;28;20201;-83
2021/12/18 09:58:31;;;;;;;35.60;13.52;;;9.20;90.60;;;;;;5039304;28;20216;-81
2021/12/18 10:00:57;;;;;;;31.95;12.52;;;9.30;90.70;;;;;;5032469;28;20224;-81
2021/12/18 10:03:45;;;;;;;46.15;14.70;;;9.40;90.70;;;;;;5022401;28;20201;-81
2021/12/18 10:06:32;;;;;;;37.92;14.10;;;9.50;90.60;;;;;;5024411;28;20171;-82
2021/12/18 10:08:58;;;;;;;42.85;16.13;;;9.40;90.10;;;;;;5024725;28;20641;-83
2021/12/18 10:11:24;;;;;;;37.40;15.13;;;9.40;90.20;;;;;;5024313;28;20178;-82
2021/12/18 10:14:03;;;;;;;45.73;15.67;;;9.60;90.10;;;;;;5031989;28;20202;-82
2021/12/18 10:16:31;;;;;;;39.35;14.40;;;9.60;90.00;;;;;;5045279;28;20180;-82
2021/12/18 10:18:58;;;;;;;41.38;15.40;;;9.50;89.90;;;;;;5047385;28;20189;-82
2021/12/18 10:21:27;;;;;;;34.45;14.68;;;9.50;89.80;;;;;;5051846;28;20212;-83
2021/12/18 10:23:55;;;;;;;30.67;15.13;;;9.60;89.70;;;;;;5050243;28;20177;-82
2021/12/18 10:26:28;;;;;;;36.72;16.20;;;9.70;89.60;;;;;;5048194;28;20182;-82
2021/12/18 10:28:54;;;;;;;34.72;13.27;;;9.50;90.00;;;;;;5047346;28;20239;-83
2021/12/18 10:31:44;;;;;;;36.03;14.20;;;9.50;89.30;;;;;;5035491;28;20186;-82
2021/12/18 10:34:21;;;;;;;33.47;14.57;;;9.50;89.30;;;;;;5020709;28;20210;-82
2021/12/18 10:37:12;;;;;;;34.33;13.15;;;9.60;89.40;;;;;;5021039;28;20239;-82
2021/12/18 10:39:44;;;;;;;37.80;13.40;;;9.60;89.40;;;;;;5020671;28;20213;-82
2021/12/18 10:42:41;;;;;;;32.20;13.57;;;9.60;89.30;;;;;;5004170;28;20713;-82
2021/12/18 10:45:24;;;;;;;34.30;13.30;;;9.70;89.30;;;;;;5019450;28;20202;-82
2021/12/18 10:48:05;;;;;;;31.75;13.15;;;9.80;89.10;;;;;;5038954;28;20217;-83
2021/12/18 10:50:34;;;;;;;37.35;12.73;;;9.80;88.80;;;;;;5039132;28;20205;-83
2021/12/18 10:53:13;;;;;;;31.77;12.23;;;9.80;88.70;;;;;;5036709;28;20189;-83
2021/12/18 10:55:57;;;;;;;31.45;13.38;;;9.70;88.60;;;;;;5039603;28;20229;-83
2021/12/18 10:58:28;;;;;;;40.65;13.32;;;9.80;88.70;;;;;;5038708;28;20855;-81
2021/12/18 11:01:07;;;;;;;31.55;13.02;;;9.70;88.40;;;;;;5034029;28;20420;-80
2021/12/18 11:03:47;;;;;;;32.78;12.18;;;9.70;88.40;;;;;;5037703;28;20186;-80
2021/12/18 11:06:22;;;;;;;31.70;10.90;;;9.60;88.30;;;;;;5038075;28;20173;-81
2021/12/18 11:09:06;;;;;;;34.25;12.77;;;9.60;88.30;;;;;;5024666;28;20184;-82
2021/12/18 11:14:25;;;;;;;32.22;11.70;;;9.70;88.30;;;;;;5039095;28;20209;-82
2021/12/18 11:17:03;;;;;;;26.05;12.05;;;9.80;88.20;;;;;;5038957;28;20178;-83
2021/12/18 11:19:31;;;;;;;31.95;10.98;;;9.50;88.10;;;;;;5020342;28;20201;-82
2021/12/18 11:22:16;;;;;;;25.23;10.27;;;9.30;88.20;;;;;;5033909;28;20190;-81
2021/12/18 11:25:02;;;;;;;28.38;9.77;;;9.20;88.40;;;;;;5039154;28;20205;-82
2021/12/18 11:27:31;;;;;;;29.95;11.80;;;9.10;89.00;;;;;;5021208;28;20208;-82
2021/12/18 11:30:08;;;;;;;24.05;11.23;;;9.30;89.30;;;;;;5019697;28;20217;-81
2021/12/18 11:32:39;;;;;;;26.83;10.82;;;9.40;89.20;;;;;;5036483;28;20177;-82
2021/12/18 11:35:08;;;;;;;26.70;10.35;;;9.50;89.10;;;;;;5037609;28;20377;-83
2021/12/18 11:37:46;;;;;;;25.73;10.15;;;9.60;89.00;;;;;;5033522;28;20197;-83
2021/12/18 11:40:15;;;;;;;35.28;11.85;;;9.40;88.20;;;;;;5035583;28;20312;-83
2021/12/18 11:42:42;;;;;;;25.48;11.02;;;9.30;88.50;;;;;;5039207;28;20511;-83
2021/12/18 11:45:08;;;;;;;33.65;10.82;;;9.40;88.40;;;;;;5021041;28;20257;-82
2021/12/18 11:47:37;;;;;;;26.75;8.95;;;9.40;88.30;;;;;;5025970;28;20224;-82
2021/12/18 11:50:21;;;;;;;30.77;11.50;;;9.20;88.30;;;;;;5021646;28;20179;-82
2021/12/18 11:53:02;;;;;;;32.25;9.13;;;9.30;88.60;;;;;;5021761;28;20634;-82
2021/12/18 11:55:50;;;;;;;26.85;9.55;;;9.50;88.40;;;;;;5022576;28;20257;-80
2021/12/18 11:58:43;;;;;;;22.02;8.27;;;9.50;88.10;;;;;;5037698;28;20188;-81
2021/12/18 12:01:18;;;;;;;29.33;12.23;;;9.50;87.60;;;;;;5040578;28;20186;-82
2021/12/18 12:03:50;;;;;;;25.00;10.30;;;9.50;87.10;;;;;;5042818;28;20174;-82
2021/12/18 12:06:20;;;;;;;28.00;9.38;;;9.60;86.80;;;;;;5041949;28;20193;-81
2021/12/18 12:08:50;;;;;;;31.10;10.98;;;9.60;86.80;;;;;;5042625;28;20197;-82
2021/12/18 12:11:18;;;;;;;29.85;10.50;;;9.40;87.00;;;;;;5045630;28;20186;-81
2021/12/18 12:14:03;;;;;;;26.85;10.23;;;9.30;87.30;;;;;;5042720;28;20613;-81
2021/12/18 12:16:45;;;;;;;32.97;12.65;;;9.10;88.30;;;;;;5044186;28;20190;-80
2021/12/18 12:19:24;;;;;;;40.67;11.02;;;9.30;88.70;;;;;;5045093;28;20216;-82
2021/12/18 12:21:53;;;;;;;32.03;11.15;;;9.30;88.60;;;;;;5042502;28;20241;-81
2021/12/18 12:24:27;;;;;;;35.38;10.93;;;9.40;88.40;;;;;;5042382;28;20205;-81
2021/12/18 12:27:14;;;;;;;34.25;11.93;;;9.60;88.20;;;;;;5026736;28;20205;-82
2021/12/18 12:29:49;;;;;;;28.83;11.25;;;9.60;87.80;;;;;;5043701;28;20173;-83
2021/12/18 12:32:16;;;;;;;21.90;7.43;;;9.40;87.30;;;;;;5042440;28;20184;-82
2021/12/18 12:34:44;;;;;;;19.58;7.65;;;9.50;87.20;;;;;;5024450;28;20214;-82
2021/12/18 12:37:34;;;;;;;17.30;6.60;;;9.50;87.10;;;;;;5042186;28;20178;-82
2021/12/18 12:40:27;;;;;;;20.05;8.07;;;9.60;86.90;;;;;;5042754;28;20193;-82
2021/12/18 12:43:15;;;;;;;15.98;8.15;;;9.70;86.60;;;;;;5038752;28;20197;-83
2021/12/18 12:45:44;;;;;;;22.05;7.35;;;9.70;86.10;;;;;;5043077;28;20185;-82
2021/12/18 12:48:10;;;;;;;15.88;7.82;;;9.60;86.00;;;;;;5041971;28;20236;-82
2021/12/18 12:50:36;;;;;;;18.23;6.10;;;9.70;86.30;;;;;;5040968;28;20178;-82
2021/12/18 12:53:11;;;;;;;15.15;7.38;;;9.70;86.30;;;;;;5025353;28;20372;-82
2021/12/18 12:55:38;;;;;;;17.38;7.15;;;9.70;86.00;;;;;;5035062;28;20210;-82
2021/12/18 12:58:21;;;;;;;22.98;8.52;;;9.70;85.80;;;;;;5019732;28;20240;-83
2021/12/18 13:01:13;;;;;;;23.45;8.05;;;9.60;85.50;;;;;;5010363;28;20269;-82
2021/12/18 13:03:48;;;;;;;17.50;6.93;;;9.40;86.00;;;;;;5035719;28;20524;-83
2021/12/18 13:06:21;;;;;;;17.15;8.02;;;9.50;86.40;;;;;;5039061;28;20189;-82
2021/12/18 13:08:48;;;;;;;32.30;9.77;;;9.30;86.50;;;;;;5036710;28;20181;-82
2021/12/18 13:11:21;;;;;;;18.20;7.00;;;9.50;87.70;;;;;;5019691;28;20233;-83
2021/12/18 13:13:48;;;;;;;13.55;7.07;;;9.40;87.00;;;;;;5029375;28;20194;-83
2021/12/18 13:16:20;;;;;;;19.50;6.68;;;9.50;87.10;;;;;;5040930;28;20190;-83
2021/12/18 13:18:58;;;;;;;11.40;5.53;;;9.50;87.20;;;;;;5041501;28;20194;-82
2021/12/18 13:21:29;;;;;;;12.55;6.50;;;9.50;86.80;;;;;;5042355;28;20194;-82
2021/12/18 13:24:01;;;;;;;13.77;7.40;;;9.40;86.30;;;;;;5024086;28;20210;-83
2021/12/18 13:26:38;;;;;;;14.85;7.45;;;9.40;86.40;;;;;;5034345;28;20190;-82
2021/12/18 13:29:17;;;;;;;14.68;6.00;;;9.50;86.50;;;;;;5021695;28;20585;-82
2021/12/18 13:31:50;;;;;;;16.05;7.18;;;9.40;86.50;;;;;;5019852;28;20182;-83
2021/12/18 13:34:22;;;;;;;14.95;6.15;;;9.50;86.70;;;;;;5017949;28;20233;-83
2021/12/18 13:37:01;;;;;;;14.50;6.88;;;9.70;86.70;;;;;;5022561;28;20175;-82
2021/12/18 13:39:33;;;;;;;14.98;6.70;;;9.70;86.20;;;;;;5021308;28;20178;-82